Time;durP1;ratioP1;P1;durP2;ratioP2;P2;SDS_P1;SDS_P2;PMS_P1;PMS_P2;Temp;Humidity;BMP_temperature;BMP_pressure;BME280_temperature;BME280_humidity;BME280_pressure;Samples;Min_cycle;Max_cycle;Signal;HPM_P1;HPM_P2
2022/05/11 00:00:58;;;;;;;16.65;9.35;;;13.20;99.90;;;;;;5046371;28;21059;-63
2022/05/11 00:03:25;;;;;;;17.05;8.93;;;13.20;99.90;;;;;;5040365;28;20045;-63
2022/05/11 00:05:51;;;;;;;18.35;9.85;;;13.20;99.90;;;;;;5047974;28;20056;-63
2022/05/11 00:08:17;;;;;;;18.60;8.95;;;13.20;99.90;;;;;;5045930;28;20048;-63
2022/05/11 00:10:44;;;;;;;16.42;9.00;;;13.20;99.90;;;;;;5048213;28;20105;-63
2022/05/11 00:13:10;;;;;;;19.70;9.52;;;13.20;99.90;;;;;;5045019;28;20479;-61
2022/05/11 00:15:36;;;;;;;19.42;9.48;;;13.20;99.90;;;;;;5049402;28;20082;-62
2022/05/11 00:18:02;;;;;;;17.88;9.50;;;13.20;99.90;;;;;;5048338;28;20033;-63
2022/05/11 00:20:29;;;;;;;20.50;9.57;;;13.20;99.90;;;;;;5054662;28;20057;-64
2022/05/11 00:22:57;;;;;;;16.20;9.38;;;13.20;99.90;;;;;;5047823;28;20048;-64
2022/05/11 00:25:25;;;;;;;19.35;9.73;;;13.30;99.90;;;;;;5048883;28;20053;-62
2022/05/11 00:27:55;;;;;;;16.73;9.82;;;13.30;99.90;;;;;;5046903;28;20049;-63
2022/05/11 00:30:23;;;;;;;15.43;9.45;;;13.30;99.90;;;;;;5066899;28;20117;-63
2022/05/11 00:32:52;;;;;;;23.45;9.65;;;13.30;99.90;;;;;;5064290;28;20135;-64
2022/05/11 00:35:19;;;;;;;20.00;10.32;;;13.40;99.90;;;;;;5042089;28;20204;-63
2022/05/11 00:37:45;;;;;;;17.63;9.95;;;13.30;99.90;;;;;;5066407;28;20056;-60
2022/05/11 00:40:13;;;;;;;16.30;10.00;;;13.30;99.90;;;;;;5071608;28;20044;-64
2022/05/11 00:42:39;;;;;;;20.38;10.30;;;13.30;99.90;;;;;;5055063;28;20036;-63
2022/05/11 00:45:06;;;;;;;18.73;10.25;;;13.30;99.90;;;;;;5038018;28;20115;-62
2022/05/11 00:47:57;;;;;;;19.05;10.55;;;13.30;99.90;;;;;;5037903;28;20048;-62
2022/05/11 00:50:34;;;;;;;19.02;10.18;;;13.40;99.90;;;;;;5065258;28;20046;-64
2022/05/11 00:53:11;;;;;;;17.92;10.18;;;13.40;99.90;;;;;;5064772;28;20055;-59
2022/05/11 00:55:59;;;;;;;19.17;10.70;;;13.40;99.90;;;;;;5063262;28;20036;-62
2022/05/11 00:58:45;;;;;;;19.60;10.60;;;13.40;99.90;;;;;;5066460;28;20052;-63
2022/05/11 01:01:12;;;;;;;19.27;9.77;;;13.40;99.90;;;;;;5043743;28;20037;-62
2022/05/11 01:03:46;;;;;;;17.02;9.93;;;13.40;99.90;;;;;;5062195;28;20044;-62
2022/05/11 01:06:13;;;;;;;17.17;9.90;;;13.40;99.90;;;;;;5065566;28;20455;-61
2022/05/11 01:08:40;;;;;;;16.73;9.73;;;13.40;99.90;;;;;;5060397;28;20060;-64
2022/05/11 01:11:07;;;;;;;14.57;9.50;;;13.40;99.90;;;;;;5064409;28;20040;-63
2022/05/11 01:13:36;;;;;;;15.50;9.85;;;13.40;99.90;;;;;;5063663;28;20105;-59
2022/05/11 01:16:02;;;;;;;20.40;9.98;;;13.50;99.90;;;;;;5060502;28;20048;-64
2022/05/11 01:18:30;;;;;;;18.13;9.77;;;13.50;99.90;;;;;;5048578;28;20053;-64
2022/05/11 01:20:57;;;;;;;16.55;9.32;;;13.50;99.90;;;;;;5046468;28;20494;-64
2022/05/11 01:23:38;;;;;;;15.95;9.40;;;13.50;99.90;;;;;;5065157;28;20078;-63
2022/05/11 01:26:05;;;;;;;16.83;9.27;;;13.50;99.90;;;;;;5047907;28;20424;-63
2022/05/11 01:28:31;;;;;;;17.17;9.50;;;13.50;99.90;;;;;;5063461;28;20144;-61
2022/05/11 01:31:04;;;;;;;14.15;8.55;;;13.50;99.90;;;;;;5065470;28;20066;-63
2022/05/11 01:33:32;;;;;;;14.60;9.02;;;13.50;99.90;;;;;;5066211;28;20059;-63
2022/05/11 01:36:29;;;;;;;17.15;9.60;;;13.50;99.90;;;;;;5063491;28;20052;-63
2022/05/11 01:38:57;;;;;;;16.20;9.77;;;13.50;99.90;;;;;;5065849;28;20140;-59
2022/05/11 01:41:29;;;;;;;16.40;9.43;;;13.50;99.90;;;;;;5066146;28;20441;-63
2022/05/11 01:43:56;;;;;;;15.65;9.25;;;13.50;99.90;;;;;;5061814;28;20394;-64
2022/05/11 01:46:23;;;;;;;16.20;9.05;;;13.50;99.90;;;;;;5065081;28;20505;-63
2022/05/11 01:48:49;;;;;;;16.90;9.65;;;13.50;99.90;;;;;;5048885;28;20127;-64
2022/05/11 01:51:18;;;;;;;18.00;9.90;;;13.50;99.90;;;;;;5069167;28;20040;-64
2022/05/11 01:53:47;;;;;;;16.48;9.10;;;13.50;99.90;;;;;;5070857;28;20127;-64
2022/05/11 01:56:14;;;;;;;15.18;9.77;;;13.50;99.90;;;;;;5055377;28;20044;-64
2022/05/11 01:58:40;;;;;;;15.95;9.60;;;13.50;99.90;;;;;;5067270;28;20970;-64
2022/05/11 02:01:06;;;;;;;15.90;9.05;;;13.50;99.90;;;;;;5049393;28;20052;-61
2022/05/11 02:03:33;;;;;;;18.17;9.43;;;13.50;99.90;;;;;;5067067;28;20589;-64
2022/05/11 02:08:45;;;;;;;13.38;9.02;;;13.50;99.90;;;;;;5052004;28;20052;-62
2022/05/11 02:11:13;;;;;;;14.27;8.75;;;13.50;99.90;;;;;;5070252;28;20048;-64
2022/05/11 02:13:39;;;;;;;13.93;8.55;;;13.50;99.90;;;;;;5067654;28;20087;-64
2022/05/11 02:16:06;;;;;;;12.30;8.00;;;13.50;99.90;;;;;;5068468;28;20494;-64
2022/05/11 02:18:32;;;;;;;14.02;8.50;;;13.50;99.90;;;;;;5047907;28;20044;-64
2022/05/11 02:20:58;;;;;;;14.27;8.60;;;13.50;99.90;;;;;;5050794;28;20053;-62
2022/05/11 02:23:25;;;;;;;18.95;9.00;;;13.40;99.90;;;;;;5064494;28;20087;-64
2022/05/11 02:25:52;;;;;;;12.88;8.52;;;13.40;99.90;;;;;;5063424;28;20041;-60
2022/05/11 02:28:21;;;;;;;17.35;8.20;;;13.40;99.90;;;;;;5065419;28;20045;-61
2022/05/11 02:30:48;;;;;;;16.63;7.95;;;13.40;99.90;;;;;;5050592;28;20052;-63
2022/05/11 02:33:15;;;;;;;18.55;8.75;;;13.40;99.90;;;;;;5047409;28;20059;-63
2022/05/11 02:35:43;;;;;;;14.13;8.63;;;13.40;99.90;;;;;;5069210;28;20056;-63
2022/05/11 02:38:22;;;;;;;15.95;8.52;;;13.40;99.90;;;;;;5046835;28;20055;-61
2022/05/11 02:40:49;;;;;;;13.30;7.97;;;13.40;99.90;;;;;;5071691;28;20044;-64
2022/05/11 02:43:16;;;;;;;14.90;8.30;;;13.40;99.90;;;;;;5067780;28;20109;-64
2022/05/11 02:45:42;;;;;;;15.07;8.27;;;13.40;99.90;;;;;;5067371;28;20394;-63
2022/05/11 02:48:13;;;;;;;14.07;8.55;;;13.40;99.90;;;;;;5034113;28;20040;-64
2022/05/11 02:50:46;;;;;;;15.85;8.27;;;13.30;99.90;;;;;;5067255;28;20056;-64
2022/05/11 02:53:13;;;;;;;16.08;8.70;;;13.30;99.90;;;;;;5047741;28;20105;-64
2022/05/11 02:55:45;;;;;;;11.25;8.45;;;13.30;99.90;;;;;;5048225;28;21494;-61
2022/05/11 02:58:13;;;;;;;14.13;8.23;;;13.30;99.90;;;;;;5064949;28;20052;-62
2022/05/11 03:00:43;;;;;;;13.38;8.18;;;13.30;99.90;;;;;;5066241;28;20044;-64
2022/05/11 03:03:11;;;;;;;14.93;8.52;;;13.30;99.90;;;;;;5066591;28;20115;-66
2022/05/11 03:05:39;;;;;;;12.15;8.27;;;13.30;99.90;;;;;;5066708;28;20054;-61
2022/05/11 03:08:05;;;;;;;11.10;8.07;;;13.30;99.90;;;;;;5069117;28;20702;-61
2022/05/11 03:10:32;;;;;;;13.90;8.48;;;13.30;99.90;;;;;;5067432;28;20583;-64
2022/05/11 03:12:59;;;;;;;13.23;8.65;;;13.30;99.90;;;;;;5055328;28;20066;-61
2022/05/11 03:15:25;;;;;;;16.23;8.23;;;13.30;99.90;;;;;;5065417;28;20064;-61
2022/05/11 03:17:51;;;;;;;13.73;7.95;;;13.30;99.90;;;;;;5047055;28;20057;-60
2022/05/11 03:20:23;;;;;;;12.90;7.85;;;13.20;99.90;;;;;;5045345;28;20059;-63
2022/05/11 03:22:50;;;;;;;12.70;7.78;;;13.30;99.90;;;;;;5048058;28;20033;-64
2022/05/11 03:25:16;;;;;;;14.20;7.30;;;13.20;99.90;;;;;;5064750;28;20059;-63
2022/05/11 03:27:43;;;;;;;12.13;7.38;;;13.20;99.90;;;;;;5048306;28;20070;-64
2022/05/11 03:30:10;;;;;;;14.73;7.65;;;13.20;99.90;;;;;;5066990;28;20067;-61
2022/05/11 03:35:21;;;;;;;16.08;7.13;;;13.20;99.90;;;;;;5068304;28;20040;-61
2022/05/11 03:37:47;;;;;;;17.40;7.38;;;13.20;99.90;;;;;;5069675;28;20044;-62
2022/05/11 03:40:13;;;;;;;13.93;7.57;;;13.20;99.90;;;;;;5065830;28;20050;-63
2022/05/11 03:42:40;;;;;;;12.45;7.60;;;13.30;99.90;;;;;;5064499;28;20076;-64
2022/05/11 03:45:19;;;;;;;15.57;7.45;;;13.30;99.90;;;;;;5063230;28;20182;-63
2022/05/11 03:47:46;;;;;;;15.23;7.68;;;13.20;99.90;;;;;;5068497;28;20564;-63
2022/05/11 03:50:14;;;;;;;15.57;7.20;;;13.20;99.90;;;;;;5067496;28;20520;-64
2022/05/11 03:52:40;;;;;;;14.95;7.07;;;13.20;99.90;;;;;;5030759;28;20047;-63
2022/05/11 03:55:10;;;;;;;10.23;6.82;;;13.20;99.90;;;;;;5065585;28;20040;-63
2022/05/11 03:57:37;;;;;;;15.35;6.80;;;13.20;99.90;;;;;;5062370;28;20048;-64
2022/05/11 04:00:06;;;;;;;12.85;6.85;;;13.20;99.90;;;;;;5065165;28;20031;-63
2022/05/11 04:02:33;;;;;;;14.40;6.85;;;13.20;99.90;;;;;;5064375;28;20039;-63
2022/05/11 04:04:58;;;;;;;12.65;6.00;;;13.20;99.90;;;;;;5065194;28;20440;-63
2022/05/11 04:07:24;;;;;;;11.63;6.40;;;13.20;99.90;;;;;;5064567;28;20043;-63
2022/05/11 04:09:50;;;;;;;12.25;6.80;;;13.20;99.90;;;;;;5068503;28;20363;-64
2022/05/11 04:12:17;;;;;;;11.98;7.10;;;13.20;99.90;;;;;;5067813;28;20505;-62
2022/05/11 04:14:43;;;;;;;13.90;7.15;;;13.20;99.90;;;;;;5045869;28;20086;-62
2022/05/11 04:17:09;;;;;;;13.13;6.60;;;13.20;99.90;;;;;;5069268;28;20131;-62
2022/05/11 04:19:36;;;;;;;11.85;6.60;;;13.20;99.90;;;;;;5059969;28;20052;-62
2022/05/11 04:22:03;;;;;;;16.20;7.20;;;13.20;99.90;;;;;;5055221;28;20055;-63
2022/05/11 04:24:28;;;;;;;14.82;7.50;;;13.20;99.90;;;;;;5066175;28;20074;-63
2022/05/11 04:26:55;;;;;;;13.07;6.68;;;13.20;99.90;;;;;;5048354;28;20051;-63
2022/05/11 04:29:22;;;;;;;13.68;6.88;;;13.20;99.90;;;;;;5064655;28;20059;-62
2022/05/11 04:31:55;;;;;;;12.93;6.93;;;13.30;99.90;;;;;;5066178;28;20095;-63
2022/05/11 04:34:22;;;;;;;11.68;6.53;;;13.30;99.90;;;;;;5066000;28;20054;-64
2022/05/11 04:36:49;;;;;;;14.38;7.28;;;13.30;99.90;;;;;;5061552;28;20043;-61
2022/05/11 04:39:15;;;;;;;18.05;7.05;;;13.30;99.90;;;;;;5064523;28;20086;-63
2022/05/11 04:41:42;;;;;;;13.82;7.38;;;13.30;99.90;;;;;;5066285;28;20058;-63
2022/05/11 04:44:08;;;;;;;14.40;7.20;;;13.30;99.90;;;;;;5043237;28;22047;-63
2022/05/11 04:46:38;;;;;;;14.60;7.13;;;13.30;99.90;;;;;;5064872;28;20044;-62
2022/05/11 04:49:19;;;;;;;11.15;6.93;;;13.40;99.90;;;;;;5064302;28;20067;-64
2022/05/11 04:51:47;;;;;;;14.98;6.75;;;13.40;99.90;;;;;;5063775;28;21283;-62
2022/05/11 04:54:14;;;;;;;14.45;7.53;;;13.40;99.90;;;;;;5064566;28;20044;-60
2022/05/11 04:56:40;;;;;;;12.75;6.97;;;13.40;99.90;;;;;;5064963;28;20059;-63
2022/05/11 04:59:08;;;;;;;11.80;7.57;;;13.40;99.90;;;;;;5063770;28;20056;-62
2022/05/11 05:01:35;;;;;;;15.63;7.10;;;13.50;99.90;;;;;;5044577;28;20466;-61
2022/05/11 05:04:02;;;;;;;13.13;6.80;;;13.50;99.90;;;;;;5050497;28;20040;-63
2022/05/11 05:06:33;;;;;;;16.73;7.40;;;13.50;99.90;;;;;;5062867;28;21414;-61
2022/05/11 05:09:00;;;;;;;11.80;7.10;;;13.50;99.90;;;;;;5048583;28;20405;-63
2022/05/11 05:11:27;;;;;;;18.27;6.88;;;13.50;99.90;;;;;;5065853;28;20052;-63
2022/05/11 05:13:53;;;;;;;13.43;6.55;;;13.60;99.90;;;;;;5045381;28;20083;-63
2022/05/11 05:16:20;;;;;;;17.20;7.13;;;13.60;99.90;;;;;;5055604;28;20371;-63
2022/05/11 05:18:46;;;;;;;13.13;6.40;;;13.60;99.90;;;;;;5059716;28;20506;-63
2022/05/11 05:21:12;;;;;;;12.45;6.20;;;13.60;99.90;;;;;;5063668;28;20055;-62
2022/05/11 05:23:38;;;;;;;15.23;6.22;;;13.60;99.90;;;;;;5067492;28;20040;-63
2022/05/11 05:26:04;;;;;;;12.65;6.00;;;13.60;99.90;;;;;;5068372;28;20129;-62
2022/05/11 05:31:18;;;;;;;13.55;6.07;;;13.60;99.90;;;;;;5068078;28;20044;-63
2022/05/11 05:33:44;;;;;;;16.70;6.35;;;13.70;99.90;;;;;;5060501;28;20044;-61
2022/05/11 05:36:11;;;;;;;14.73;6.30;;;13.70;99.90;;;;;;5049715;28;20051;-61
2022/05/11 05:38:38;;;;;;;14.45;6.30;;;13.70;99.90;;;;;;5071355;28;20052;-62
2022/05/11 05:41:06;;;;;;;17.63;6.53;;;13.70;99.90;;;;;;5065870;28;20156;-61
2022/05/11 05:43:32;;;;;;;14.13;5.97;;;13.80;99.90;;;;;;5047650;28;20046;-63
2022/05/11 05:45:59;;;;;;;13.57;5.97;;;13.80;99.90;;;;;;5068016;28;20139;-61
2022/05/11 05:48:24;;;;;;;14.60;6.70;;;13.80;99.90;;;;;;5047129;28;20178;-61
2022/05/11 05:50:51;;;;;;;13.25;6.28;;;13.80;99.90;;;;;;5067046;28;20048;-62
2022/05/11 05:53:21;;;;;;;12.35;5.78;;;13.90;99.90;;;;;;5050247;28;20048;-63
2022/05/11 05:55:51;;;;;;;15.68;6.55;;;13.90;99.90;;;;;;5071868;28;20581;-63
2022/05/11 05:58:18;;;;;;;16.08;6.28;;;14.00;99.90;;;;;;5059743;28;20066;-61
2022/05/11 06:00:45;;;;;;;19.02;5.85;;;14.00;99.90;;;;;;5057327;28;20047;-63
2022/05/11 06:03:12;;;;;;;16.92;6.43;;;14.10;99.90;;;;;;5067692;28;20037;-61
2022/05/11 06:05:38;;;;;;;13.75;6.32;;;14.10;99.90;;;;;;5069844;28;20063;-61
2022/05/11 06:08:07;;;;;;;16.40;5.78;;;14.20;99.90;;;;;;5045415;28;20044;-64
2022/05/11 06:10:39;;;;;;;16.17;6.10;;;14.20;99.90;;;;;;5031126;28;20563;-65
2022/05/11 06:13:07;;;;;;;16.03;6.37;;;14.20;99.90;;;;;;5062615;28;20508;-65
2022/05/11 06:15:35;;;;;;;17.92;6.20;;;14.20;99.90;;;;;;5049981;28;20040;-63
2022/05/11 06:18:02;;;;;;;13.93;6.60;;;14.30;99.90;;;;;;5076690;28;20051;-65
2022/05/11 06:20:29;;;;;;;18.48;6.25;;;14.30;99.90;;;;;;5055539;28;20120;-66
2022/05/11 06:22:55;;;;;;;18.60;6.57;;;14.30;99.90;;;;;;5066233;28;20032;-63
2022/05/11 06:25:23;;;;;;;19.70;6.32;;;14.40;99.90;;;;;;5072096;28;20045;-63
2022/05/11 06:27:49;;;;;;;18.80;6.63;;;14.50;99.90;;;;;;5072980;28;20565;-65
2022/05/11 06:30:15;;;;;;;13.65;6.18;;;14.60;99.90;;;;;;5075680;28;20764;-64
2022/05/11 06:32:42;;;;;;;18.25;6.85;;;14.70;99.90;;;;;;5067938;28;20044;-64
2022/05/11 06:35:09;;;;;;;17.40;6.85;;;14.80;99.90;;;;;;5056420;28;20045;-64
2022/05/11 06:37:39;;;;;;;16.02;6.82;;;14.90;99.90;;;;;;5070589;28;20048;-64
2022/05/11 06:40:06;;;;;;;13.73;5.85;;;15.00;99.90;;;;;;5073544;28;20114;-62
2022/05/11 06:42:32;;;;;;;16.65;6.40;;;15.10;99.90;;;;;;5067587;28;20044;-61
2022/05/11 06:44:59;;;;;;;13.52;6.47;;;15.10;99.90;;;;;;5036700;28;20059;-64
2022/05/11 06:47:25;;;;;;;16.90;6.55;;;15.10;99.90;;;;;;5050668;28;20036;-64
2022/05/11 06:49:51;;;;;;;17.45;6.32;;;15.10;99.90;;;;;;5070746;28;20044;-62
2022/05/11 06:52:17;;;;;;;17.00;6.32;;;15.20;99.90;;;;;;5051181;28;20052;-65
2022/05/11 07:00:13;;;;;;;22.02;7.03;;;15.20;99.90;;;;;;5051116;28;20173;-65
2022/05/11 07:02:39;;;;;;;16.15;6.18;;;15.20;99.90;;;;;;5057166;28;20166;-61
2022/05/11 07:05:07;;;;;;;14.00;6.32;;;15.30;99.90;;;;;;5046917;28;20498;-65
2022/05/11 07:07:33;;;;;;;14.93;6.47;;;15.40;99.90;;;;;;5066498;28;20097;-64
2022/05/11 07:09:59;;;;;;;17.25;5.85;;;15.40;99.90;;;;;;5065306;28;20051;-65
2022/05/11 07:12:32;;;;;;;16.50;6.90;;;15.40;99.90;;;;;;5051458;28;20149;-65
2022/05/11 07:14:59;;;;;;;21.35;6.80;;;15.50;99.90;;;;;;5069440;28;20129;-62
2022/05/11 07:17:34;;;;;;;15.90;5.57;;;15.60;99.90;;;;;;5072184;28;20094;-65
2022/05/11 07:20:05;;;;;;;15.40;5.88;;;15.60;99.90;;;;;;5066678;28;20044;-66
2022/05/11 07:22:31;;;;;;;21.25;6.13;;;15.60;99.90;;;;;;5068380;28;20035;-64
2022/05/11 07:24:57;;;;;;;11.90;4.80;;;15.60;99.90;;;;;;5064757;28;20059;-65
2022/05/11 07:27:24;;;;;;;16.75;5.78;;;15.70;99.90;;;;;;5068958;28;20052;-66
2022/05/11 07:29:54;;;;;;;18.55;5.32;;;15.70;99.90;;;;;;5067719;28;20048;-64
2022/05/11 07:32:22;;;;;;;20.48;6.25;;;15.70;99.90;;;;;;5067773;28;20048;-65
2022/05/11 07:34:51;;;;;;;16.10;5.63;;;15.80;99.90;;;;;;5064309;28;20055;-65
2022/05/11 07:37:18;;;;;;;11.90;5.15;;;15.90;99.90;;;;;;5053931;28;20048;-64
2022/05/11 07:39:44;;;;;;;15.88;5.75;;;16.00;99.90;;;;;;5064197;28;20842;-64
2022/05/11 07:42:10;;;;;;;19.15;6.15;;;16.10;99.90;;;;;;5032790;28;20048;-65
2022/05/11 07:44:36;;;;;;;12.70;4.82;;;16.30;99.90;;;;;;5033811;28;20041;-65
2022/05/11 07:47:03;;;;;;;18.13;5.07;;;16.40;99.90;;;;;;5068719;28;20036;-65
2022/05/11 07:49:29;;;;;;;20.25;4.95;;;16.50;99.90;;;;;;5066116;28;20052;-62
2022/05/11 07:51:55;;;;;;;14.90;4.20;;;16.50;99.90;;;;;;5053830;28;20062;-63
2022/05/11 07:54:21;;;;;;;16.45;4.55;;;16.60;99.90;;;;;;5065467;28;20051;-65
2022/05/11 08:02:17;;;;;;;17.98;4.47;;;16.70;99.90;;;;;;5049449;28;21142;-63
2022/05/11 08:04:43;;;;;;;15.13;4.28;;;16.70;99.90;;;;;;5063245;28;20135;-63
2022/05/11 08:07:10;;;;;;;18.85;4.03;;;16.80;99.90;;;;;;5064978;28;20398;-66
2022/05/11 08:09:37;;;;;;;16.33;4.03;;;16.80;99.90;;;;;;5067342;28;20036;-65
2022/05/11 08:12:03;;;;;;;16.52;3.67;;;16.80;99.90;;;;;;5066114;28;21078;-63
2022/05/11 08:14:29;;;;;;;17.15;3.72;;;16.80;99.90;;;;;;5050580;28;20056;-65
2022/05/11 08:16:55;;;;;;;20.63;4.63;;;16.80;99.90;;;;;;5066881;28;20074;-65
2022/05/11 08:19:26;;;;;;;11.15;3.78;;;16.80;99.90;;;;;;5069513;28;20094;-63
2022/05/11 08:21:54;;;;;;;13.77;4.30;;;16.90;99.90;;;;;;5068498;28;20032;-63
2022/05/11 08:24:21;;;;;;;18.75;4.13;;;16.90;99.90;;;;;;5069848;28;20048;-63
2022/05/11 08:26:51;;;;;;;13.63;4.70;;;17.00;99.90;;;;;;5069887;28;20031;-64
2022/05/11 08:34:51;;;;;;;18.35;4.53;;;17.20;99.90;;;;;;5067136;28;20122;-62
2022/05/11 08:37:17;;;;;;;16.50;4.72;;;17.30;99.90;;;;;;5071308;28;20052;-65
2022/05/11 08:39:44;;;;;;;15.23;4.50;;;17.30;99.90;;;;;;5071022;28;20382;-65
2022/05/11 08:42:11;;;;;;;17.65;4.35;;;17.30;99.90;;;;;;5065111;28;20040;-65
2022/05/11 08:44:43;;;;;;;15.38;4.75;;;17.40;99.90;;;;;;5064115;28;21498;-65
2022/05/11 08:47:15;;;;;;;15.90;4.40;;;17.50;99.90;;;;;;5068861;28;20044;-66
2022/05/11 08:50:21;;;;;;;18.08;4.47;;;17.60;99.90;;;;;;5065029;28;20075;-66
2022/05/11 08:52:50;;;;;;;17.35;4.30;;;17.70;99.90;;;;;;5040823;28;20763;-66
2022/05/11 08:55:28;;;;;;;18.50;4.80;;;17.70;99.90;;;;;;5067377;28;20052;-65
2022/05/11 08:57:55;;;;;;;15.77;3.85;;;17.70;99.90;;;;;;5064642;28;20060;-65
2022/05/11 09:00:22;;;;;;;16.38;4.07;;;17.80;99.90;;;;;;5053731;28;20056;-64
2022/05/11 09:03:05;;;;;;;13.68;4.15;;;17.90;99.90;;;;;;5064849;28;20385;-66
2022/05/11 09:05:31;;;;;;;16.77;4.50;;;18.00;99.90;;;;;;5065629;28;20045;-66
2022/05/11 09:07:59;;;;;;;14.43;3.35;;;18.10;99.90;;;;;;5049325;28;20056;-66
2022/05/11 09:10:32;;;;;;;13.00;4.05;;;18.00;99.90;;;;;;5067269;28;20036;-63
2022/05/11 09:13:02;;;;;;;14.25;3.78;;;18.00;99.90;;;;;;5068141;28;20071;-63
2022/05/11 09:15:49;;;;;;;15.65;4.63;;;18.10;99.90;;;;;;5058006;28;20058;-65
2022/05/11 09:18:16;;;;;;;12.35;3.20;;;18.10;99.90;;;;;;5069681;28;20049;-64
2022/05/11 09:20:55;;;;;;;13.45;3.72;;;18.20;99.90;;;;;;5068413;28;20101;-65
2022/05/11 09:24:10;;;;;;;13.75;3.65;;;18.30;99.90;;;;;;5069448;28;20040;-65
2022/05/11 09:26:46;;;;;;;14.95;3.80;;;18.50;99.80;;;;;;5034845;28;20443;-65
2022/05/11 09:29:19;;;;;;;13.98;3.63;;;18.70;98.90;;;;;;5064809;28;21110;-65
2022/05/11 09:31:48;;;;;;;18.83;3.42;;;18.80;98.50;;;;;;5067923;28;20059;-65
2022/05/11 09:34:25;;;;;;;9.52;3.20;;;18.80;98.20;;;;;;5069108;28;20040;-65
2022/05/11 09:37:03;;;;;;;13.50;3.67;;;18.70;97.80;;;;;;5036387;28;20771;-65
2022/05/11 09:39:33;;;;;;;16.92;3.40;;;18.60;97.70;;;;;;5072143;28;20040;-65
2022/05/11 09:42:17;;;;;;;8.90;2.75;;;18.60;97.70;;;;;;5070426;28;20734;-65
2022/05/11 09:44:45;;;;;;;15.60;2.95;;;18.60;97.30;;;;;;5072203;28;20044;-67
2022/05/11 09:47:35;;;;;;;11.57;2.97;;;18.60;97.00;;;;;;5070256;28;20049;-65
2022/05/11 09:50:22;;;;;;;14.88;2.72;;;18.60;96.70;;;;;;5037964;28;20055;-64
2022/05/11 09:52:49;;;;;;;11.40;3.00;;;18.60;97.10;;;;;;5066805;28;20036;-66
2022/05/11 09:55:25;;;;;;;11.55;3.17;;;18.50;97.20;;;;;;5070842;28;20076;-64
2022/05/11 09:57:56;;;;;;;13.52;3.15;;;18.60;96.80;;;;;;5070802;28;20568;-63
2022/05/11 10:00:36;;;;;;;7.28;1.90;;;18.80;97.30;;;;;;5043729;28;20398;-65
2022/05/11 10:03:08;;;;;;;14.00;2.28;;;19.10;95.40;;;;;;5071006;28;21147;-66
2022/05/11 10:05:42;;;;;;;9.00;2.33;;;19.30;93.50;;;;;;5055812;28;22037;-65
2022/05/11 10:08:27;;;;;;;10.50;2.20;;;19.30;92.40;;;;;;5059422;28;20059;-64
2022/05/11 10:11:24;;;;;;;11.82;2.85;;;19.20;91.60;;;;;;5071190;28;20127;-65
2022/05/11 10:23:15;;;;;;;14.18;2.65;;;19.60;90.70;;;;;;5040388;28;20143;-66
2022/05/11 10:25:46;;;;;;;9.93;2.60;;;19.60;89.40;;;;;;5069288;28;20037;-65
2022/05/11 10:28:21;;;;;;;12.70;2.53;;;19.60;88.40;;;;;;5069273;28;20457;-65
2022/05/11 10:31:00;;;;;;;10.98;2.60;;;19.60;88.70;;;;;;5071174;28;20596;-63
2022/05/11 10:33:48;;;;;;;7.28;2.80;;;19.80;89.30;;;;;;5053710;28;20509;-65
2022/05/11 10:36:52;;;;;;;15.48;2.85;;;19.80;88.40;;;;;;5073100;28;20072;-65
2022/05/11 10:39:24;;;;;;;14.27;2.78;;;19.90;88.50;;;;;;5053222;28;20048;-66
2022/05/11 10:42:12;;;;;;;10.70;2.63;;;20.20;90.20;;;;;;5055913;28;20048;-66
2022/05/11 10:45:00;;;;;;;9.68;2.53;;;20.60;90.30;;;;;;5071888;28;20118;-65
2022/05/11 10:47:41;;;;;;;10.57;2.65;;;20.90;86.60;;;;;;5072399;28;20083;-64
2022/05/11 10:50:16;;;;;;;9.55;2.60;;;21.20;86.50;;;;;;5052798;28;20040;-66
2022/05/11 10:52:53;;;;;;;12.65;2.75;;;21.60;85.00;;;;;;5067133;28;20064;-66
2022/05/11 10:55:27;;;;;;;14.77;3.28;;;21.70;82.50;;;;;;5069807;28;20467;-64
2022/05/11 10:58:22;;;;;;;12.55;3.00;;;21.80;81.70;;;;;;5074544;28;20052;-61
2022/05/11 11:01:15;;;;;;;8.00;2.20;;;21.80;78.70;;;;;;5046629;28;20079;-65
2022/05/11 11:03:51;;;;;;;12.57;2.90;;;21.70;78.40;;;;;;5039730;28;20127;-66
2022/05/11 11:09:38;;;;;;;10.90;2.70;;;21.20;76.80;;;;;;5063249;28;20135;-65
2022/05/11 11:12:24;;;;;;;9.30;2.75;;;21.10;77.20;;;;;;5066171;28;20048;-66
2022/05/11 11:14:55;;;;;;;18.08;3.15;;;21.00;78.60;;;;;;5066866;28;20135;-62
2022/05/11 11:17:25;;;;;;;13.73;2.67;;;20.90;77.60;;;;;;5065186;28;20059;-62
2022/05/11 11:19:55;;;;;;;11.23;2.95;;;20.70;77.80;;;;;;5068398;28;20136;-62
2022/05/11 11:22:22;;;;;;;12.00;2.65;;;20.90;81.10;;;;;;5068696;28;20036;-61
2022/05/11 11:25:12;;;;;;;15.88;2.80;;;21.20;80.70;;;;;;5068425;28;20055;-62
2022/05/11 11:28:15;;;;;;;19.25;2.65;;;21.40;78.20;;;;;;5063656;28;20057;-62
2022/05/11 11:31:12;;;;;;;;;;;21.50;76.80;;;;;;5065321;28;20052;-62
2022/05/11 11:34:06;;;;;;;15.70;3.92;;;21.70;78.20;;;;;;5043543;28;19924;-62
2022/05/11 11:36:35;;;;;;;13.25;3.55;;;21.80;78.00;;;;;;5067013;28;20041;-62
2022/05/11 11:39:03;;;;;;;15.27;3.10;;;21.90;78.50;;;;;;5062471;28;20075;-61
2022/05/11 11:41:32;;;;;;;12.68;3.30;;;22.10;77.40;;;;;;5064257;28;20775;-61
2022/05/11 11:44:02;;;;;;;15.95;3.10;;;22.30;77.70;;;;;;5069229;28;20056;-59
2022/05/11 11:46:45;;;;;;;14.35;3.40;;;22.50;75.50;;;;;;5047557;28;20086;-62
2022/05/11 11:49:11;;;;;;;;;;;22.30;75.20;;;;;;5067338;28;20073;-62
2022/05/11 11:51:56;;;;;;;19.73;3.40;;;22.00;75.70;;;;;;5069496;28;19973;-61
2022/05/11 11:54:37;;;;;;;14.15;3.03;;;21.70;76.00;;;;;;5065089;28;20071;-61
2022/05/11 11:57:12;;;;;;;10.13;2.88;;;21.40;75.70;;;;;;5064436;28;20048;-61
2022/05/11 11:59:47;;;;;;;19.15;3.33;;;21.20;75.70;;;;;;5070048;28;20044;-61
2022/05/11 12:02:44;;;;;;;11.55;3.08;;;21.00;75.80;;;;;;5044394;28;20042;-62
2022/05/11 12:05:25;;;;;;;15.18;3.53;;;20.80;75.90;;;;;;5073910;28;20114;-61
2022/05/11 12:16:28;;;;;;;13.73;3.10;;;21.30;76.40;;;;;;5057218;28;20435;-61
2022/05/11 12:19:15;;;;;;;8.63;2.17;;;21.70;74.40;;;;;;5072500;28;20146;-62
2022/05/11 12:21:53;;;;;;;15.27;2.83;;;21.80;72.60;;;;;;5072194;28;20055;-62
2022/05/11 12:24:28;;;;;;;10.75;1.85;;;21.70;72.50;;;;;;5071193;28;20101;-62
2022/05/11 12:26:58;;;;;;;3.90;1.33;;;21.40;71.00;;;;;;5067485;28;20048;-62
2022/05/11 12:32:10;;;;;;;7.85;2.03;;;20.90;68.70;;;;;;5053488;28;20059;-62
2022/05/11 12:34:45;;;;;;;9.25;2.10;;;20.70;69.80;;;;;;5053179;28;20104;-62
2022/05/11 12:37:41;;;;;;;5.13;1.35;;;20.70;69.50;;;;;;5053686;28;20055;-61
2022/05/11 12:40:09;;;;;;;8.98;1.90;;;20.90;69.00;;;;;;5048757;28;20072;-62
2022/05/11 12:42:56;;;;;;;9.43;2.05;;;21.10;68.30;;;;;;5050239;28;20064;-62
2022/05/11 12:45:31;;;;;;;7.15;1.70;;;21.30;68.10;;;;;;5054282;28;20049;-62
2022/05/11 12:47:59;;;;;;;6.28;1.77;;;21.70;68.90;;;;;;5055555;28;20547;-62
2022/05/11 12:50:56;;;;;;;6.45;1.65;;;22.00;68.60;;;;;;5054419;28;20542;-61
2022/05/11 12:53:29;;;;;;;8.52;1.85;;;22.50;68.20;;;;;;5048374;28;20055;-61
2022/05/11 12:56:07;;;;;;;7.97;2.03;;;22.90;65.80;;;;;;5050555;28;20044;-61
2022/05/11 12:58:35;;;;;;;9.07;1.80;;;23.10;63.00;;;;;;5049325;28;20102;-62
2022/05/11 13:01:05;;;;;;;6.68;2.03;;;23.10;62.10;;;;;;5051466;28;20052;-62
2022/05/11 13:03:35;;;;;;;7.20;1.88;;;23.00;61.00;;;;;;5050344;28;20542;-61
2022/05/11 13:06:43;;;;;;;5.20;1.08;;;23.00;60.60;;;;;;5049087;28;20526;-62
2022/05/11 13:09:23;;;;;;;7.03;1.48;;;23.20;59.30;;;;;;5035703;28;20215;-62
2022/05/11 13:11:51;;;;;;;6.57;1.38;;;23.20;57.70;;;;;;5048254;28;20082;-61
2022/05/11 13:14:23;;;;;;;4.90;1.30;;;23.30;56.80;;;;;;5046763;28;20131;-62
2022/05/11 13:16:54;;;;;;;6.40;1.70;;;23.30;56.30;;;;;;5051260;28;20494;-62
2022/05/11 13:19:27;;;;;;;7.40;1.67;;;23.10;56.70;;;;;;5048998;28;20306;-61
2022/05/11 13:21:57;;;;;;;9.40;1.98;;;23.10;58.50;;;;;;5052744;28;20154;-62
2022/05/11 13:24:41;;;;;;;8.65;1.85;;;23.10;58.40;;;;;;5053235;28;20036;-59
2022/05/11 13:27:34;;;;;;;11.38;2.40;;;23.10;58.80;;;;;;5046841;28;20050;-61
2022/05/11 13:30:32;;;;;;;12.73;2.22;;;22.80;59.50;;;;;;5055724;28;20063;-62
2022/05/11 13:33:04;;;;;;;10.02;2.55;;;22.70;60.40;;;;;;5037289;28;20097;-62
2022/05/11 13:35:32;;;;;;;9.70;2.53;;;22.60;61.30;;;;;;5064764;28;20044;-61
2022/05/11 13:38:01;;;;;;;13.88;2.55;;;22.60;61.30;;;;;;5064714;28;20048;-60
2022/05/11 13:40:34;;;;;;;10.57;2.60;;;22.50;60.60;;;;;;5074602;28;20076;-61
2022/05/11 13:43:01;;;;;;;10.75;2.67;;;22.30;61.20;;;;;;5073743;28;20051;-61
2022/05/11 13:45:28;;;;;;;11.77;2.28;;;22.10;61.50;;;;;;5054703;28;20071;-60
2022/05/11 13:48:13;;;;;;;16.33;2.78;;;22.00;62.30;;;;;;5073929;28;20369;-61